UPS1065 EDDF-EDDS
Flight info
| Callsign | UPS1065 |
|---|---|
| Flight time | N/A |
| Altitude | 21000 |
| Route | ANEKI2L/18 ANEKI Y163 NEKLO Y171 INKAM N850 KRH T128 BADSO |
| Aircraft | B763/H-VGDW/C |
Departure
| Time | 2026-04-15 11:42 |
|---|---|
| Airport | Frankfurt Main Airport (EDDF) |
Arrival
| Time | N/A |
|---|---|
| Airport | Stuttgart Airport (EDDS) |
| Time | Latitude | Longitude | Altitude | Speed | Heading |
|---|---|---|---|---|---|
| 2026-04-15 11:15 | 50.03733 | 8.52776 | 359 ft | 0 kts | 339° |
| 2026-04-15 11:25 | 50.03721 | 8.52784 | 359 ft | 2 kts | 346° |
| 2026-04-15 11:25 | 50.03705 | 8.52791 | 359 ft | 2 kts | 351° |
| 2026-04-15 11:25 | 50.03689 | 8.52794 | 359 ft | 2 kts | 358° |
| 2026-04-15 11:25 | 50.03673 | 8.52795 | 358 ft | 2 kts | 8° |
| 2026-04-15 11:26 | 50.03656 | 8.52790 | 358 ft | 2 kts | 24° |
| 2026-04-15 11:26 | 50.03642 | 8.52778 | 358 ft | 2 kts | 41° |
| 2026-04-15 11:26 | 50.03630 | 8.52760 | 358 ft | 2 kts | 57° |
| 2026-04-15 11:26 | 50.03622 | 8.52740 | 357 ft | 2 kts | 68° |
| 2026-04-15 11:27 | 50.03620 | 8.52731 | 357 ft | 0 kts | 70° |
| 2026-04-15 11:27 | 50.03620 | 8.52730 | 357 ft | 0 kts | 70° |
| 2026-04-15 11:36 | 50.03624 | 8.52751 | 357 ft | 8 kts | 70° |
| 2026-04-15 11:37 | 50.03607 | 8.52854 | 355 ft | 13 kts | 136° |
| 2026-04-15 11:37 | 50.03573 | 8.52867 | 352 ft | 5 kts | 198° |
| 2026-04-15 11:37 | 50.03546 | 8.52805 | 353 ft | 18 kts | 245° |
| 2026-04-15 11:37 | 50.03516 | 8.52674 | 352 ft | 20 kts | 254° |
| 2026-04-15 11:38 | 50.03499 | 8.52470 | 349 ft | 18 kts | 255° |
| 2026-04-15 11:38 | 50.03453 | 8.52317 | 351 ft | 10 kts | 212° |
| 2026-04-15 11:38 | 50.03403 | 8.52365 | 336 ft | 7 kts | 112° |
| 2026-04-15 11:38 | 50.03400 | 8.52415 | 339 ft | 5 kts | 96° |
| 2026-04-15 11:39 | 50.03398 | 8.52454 | 338 ft | 0 kts | 93° |
| 2026-04-15 11:39 | 50.03398 | 8.52461 | 337 ft | 8 kts | 93° |
| 2026-04-15 11:39 | 50.03389 | 8.52572 | 352 ft | 7 kts | 115° |
| 2026-04-15 11:40 | 50.03360 | 8.52593 | 337 ft | 3 kts | 178° |
| 2026-04-15 11:40 | 50.03345 | 8.52593 | 337 ft | 0 kts | 179° |
| 2026-04-15 11:41 | 50.03136 | 8.52597 | 340 ft | 85 kts | 179° |
| 2026-04-15 11:41 | 50.02149 | 8.52607 | 347 ft | 197 kts | 179° |
| 2026-04-15 11:41 | 50.00518 | 8.52629 | 921 ft | 251 kts | 179° |
| 2026-04-15 11:42 | 49.98763 | 8.52669 | 1631 ft | 253 kts | 178° |
| 2026-04-15 11:42 | 49.97032 | 8.53179 | 2513 ft | 246 kts | 163° |
| 2026-04-15 11:42 | 49.95422 | 8.53829 | 4032 ft | 240 kts | 165° |
| 2026-04-15 11:42 | 49.93775 | 8.54340 | 5639 ft | 244 kts | 172° |
| 2026-04-15 11:43 | 49.92060 | 8.54596 | 7132 ft | 250 kts | 177° |
| 2026-04-15 11:43 | 49.90291 | 8.54721 | 8498 ft | 259 kts | 179° |
| 2026-04-15 11:43 | 49.88466 | 8.54796 | 9835 ft | 266 kts | 180° |
| 2026-04-15 11:43 | 49.86554 | 8.54843 | 10760 ft | 289 kts | 180° |
| 2026-04-15 11:44 | 49.84446 | 8.54711 | 11471 ft | 315 kts | 186° |
| 2026-04-15 11:44 | 49.82187 | 8.54372 | 12262 ft | 336 kts | 186° |
| 2026-04-15 11:44 | 49.79802 | 8.54047 | 13089 ft | 353 kts | 186° |
| 2026-04-15 11:44 | 49.77301 | 8.53743 | 13924 ft | 367 kts | 185° |
| 2026-04-15 11:45 | 49.74747 | 8.53426 | 14679 ft | 377 kts | 186° |
| 2026-04-15 11:45 | 49.72102 | 8.53086 | 15551 ft | 383 kts | 186° |
| 2026-04-15 11:45 | 49.69424 | 8.52748 | 16422 ft | 389 kts | 185° |
| 2026-04-15 11:45 | 49.66706 | 8.52409 | 17284 ft | 394 kts | 185° |
| 2026-04-15 11:46 | 49.63944 | 8.52060 | 18072 ft | 400 kts | 185° |
| 2026-04-15 11:46 | 49.61145 | 8.51709 | 18810 ft | 406 kts | 185° |
| 2026-04-15 11:46 | 49.58316 | 8.51357 | 19472 ft | 410 kts | 185° |
| 2026-04-15 11:46 | 49.55444 | 8.50995 | 20107 ft | 415 kts | 185° |
| 2026-04-15 11:47 | 49.52604 | 8.50642 | 20692 ft | 403 kts | 185° |
| 2026-04-15 11:47 | 49.49958 | 8.50313 | 20941 ft | 360 kts | 185° |
| 2026-04-15 11:47 | 49.47564 | 8.50013 | 21065 ft | 334 kts | 186° |
| 2026-04-15 11:47 | 49.45257 | 8.49722 | 21160 ft | 333 kts | 186° |
| 2026-04-15 11:48 | 49.42940 | 8.49432 | 21208 ft | 335 kts | 185° |
| 2026-04-15 11:48 | 49.40600 | 8.49143 | 21237 ft | 336 kts | 185° |
| 2026-04-15 11:48 | 49.38270 | 8.48858 | 21250 ft | 336 kts | 186° |
| 2026-04-15 11:48 | 49.35971 | 8.48568 | 21246 ft | 335 kts | 186° |
| 2026-04-15 11:49 | 49.33641 | 8.48306 | 21247 ft | 335 kts | 186° |
| 2026-04-15 11:49 | 49.31307 | 8.48249 | 21241 ft | 337 kts | 173° |
| 2026-04-15 11:49 | 49.29014 | 8.49001 | 21253 ft | 338 kts | 163° |
| 2026-04-15 11:49 | 49.26794 | 8.50226 | 21252 ft | 339 kts | 158° |
| 2026-04-15 11:50 | 49.24618 | 8.51678 | 21246 ft | 340 kts | 155° |
| 2026-04-15 11:50 | 49.22552 | 8.53439 | 21241 ft | 339 kts | 147° |
| 2026-04-15 11:50 | 49.20594 | 8.55395 | 21231 ft | 339 kts | 147° |
| 2026-04-15 11:50 | 49.18595 | 8.57322 | 21229 ft | 339 kts | 149° |
| 2026-04-15 11:51 | 49.16425 | 8.58705 | 21224 ft | 338 kts | 171° |
| 2026-04-15 11:51 | 49.14083 | 8.58907 | 21257 ft | 338 kts | 182° |
| 2026-04-15 11:51 | 49.11732 | 8.58810 | 21248 ft | 338 kts | 183° |
| 2026-04-15 11:51 | 49.09381 | 8.58667 | 21236 ft | 337 kts | 183° |
| 2026-04-15 11:52 | 49.07034 | 8.58520 | 21223 ft | 338 kts | 183° |
| 2026-04-15 11:52 | 49.04685 | 8.58434 | 21218 ft | 337 kts | 179° |
| 2026-04-15 11:52 | 49.02339 | 8.58655 | 21220 ft | 339 kts | 177° |
| 2026-04-15 11:52 | 49.00035 | 8.58892 | 21198 ft | 325 kts | 178° |
| 2026-04-15 11:53 | 48.97868 | 8.59082 | 21170 ft | 299 kts | 177° |
| 2026-04-15 11:53 | 48.95866 | 8.59253 | 21110 ft | 278 kts | 178° |
| 2026-04-15 11:53 | 48.93964 | 8.59431 | 20616 ft | 275 kts | 177° |
| 2026-04-15 11:53 | 48.92015 | 8.59617 | 19747 ft | 286 kts | 177° |
| 2026-04-15 11:54 | 48.90007 | 8.59802 | 19134 ft | 287 kts | 177° |
| 2026-04-15 11:54 | 48.88061 | 8.59984 | 18892 ft | 273 kts | 177° |
| 2026-04-15 11:54 | 48.86200 | 8.60163 | 18556 ft | 265 kts | 177° |
| 2026-04-15 11:54 | 48.84350 | 8.60350 | 17826 ft | 269 kts | 177° |
| 2026-04-15 11:55 | 48.82458 | 8.60540 | 17098 ft | 274 kts | 176° |
| 2026-04-15 11:55 | 48.80574 | 8.60727 | 16681 ft | 267 kts | 177° |